Time;durP1;ratioP1;P1;durP2;ratioP2;P2;SDS_P1;SDS_P2;PMS_P1;PMS_P2;Temp;Humidity;BMP_temperature;BMP_pressure;BME280_temperature;BME280_humidity;BME280_pressure;Samples;Min_cycle;Max_cycle;Signal;HPM_P1;HPM_P2
2021/07/18 00:00:29;;;;;;;3.08;1.58;;;17.50;95.00;;;;;;4995364;28;20053;-79
2021/07/18 00:02:54;;;;;;;4.75;1.63;;;17.60;94.90;;;;;;4994352;28;20025;-79
2021/07/18 00:05:20;;;;;;;4.32;1.63;;;17.70;94.80;;;;;;4993447;28;20042;-79
2021/07/18 00:07:45;;;;;;;6.03;1.80;;;17.80;94.70;;;;;;4998888;28;20030;-79
2021/07/18 00:10:11;;;;;;;6.85;1.75;;;18.00;94.60;;;;;;4998879;28;20485;-77
2021/07/18 00:12:37;;;;;;;6.45;2.53;;;18.10;94.30;;;;;;4992542;28;20042;-77
2021/07/18 00:15:05;;;;;;;3.90;2.13;;;18.10;94.10;;;;;;4999316;28;20037;-77
2021/07/18 00:17:36;;;;;;;3.33;1.55;;;18.10;94.00;;;;;;5016045;28;20116;-79
2021/07/18 00:20:07;;;;;;;8.73;2.65;;;18.10;94.00;;;;;;4994991;28;20030;-79
2021/07/18 00:22:33;;;;;;;6.82;1.67;;;18.20;93.80;;;;;;5000897;28;20060;-79
2021/07/18 00:24:58;;;;;;;5.95;3.17;;;18.30;93.80;;;;;;4998397;28;20069;-79
2021/07/18 00:27:23;;;;;;;6.18;2.58;;;18.30;93.60;;;;;;4999600;28;20033;-79
2021/07/18 00:29:49;;;;;;;2.38;1.80;;;18.50;93.50;;;;;;4999996;28;20546;-79
2021/07/18 00:32:14;;;;;;;6.72;2.88;;;18.60;93.40;;;;;;4998283;28;20050;-79
2021/07/18 00:34:40;;;;;;;8.15;3.08;;;18.60;93.30;;;;;;4999059;28;20065;-77
2021/07/18 00:37:06;;;;;;;3.95;2.83;;;18.60;93.10;;;;;;4998950;28;20030;-77
2021/07/18 00:39:31;;;;;;;6.00;3.53;;;18.60;93.00;;;;;;4998105;28;20066;-77
2021/07/18 00:41:57;;;;;;;5.43;2.17;;;18.70;92.90;;;;;;4997336;28;20033;-79
2021/07/18 00:44:22;;;;;;;6.20;2.92;;;18.70;92.70;;;;;;4997857;28;20029;-79
2021/07/18 00:46:48;;;;;;;4.10;3.35;;;18.70;92.80;;;;;;4996916;28;20029;-77
2021/07/18 00:49:13;;;;;;;9.88;4.35;;;18.70;92.70;;;;;;5000017;28;20492;-77
2021/07/18 00:51:39;;;;;;;7.88;3.60;;;18.70;92.80;;;;;;4999584;28;20101;-77
2021/07/18 00:54:05;;;;;;;6.15;3.78;;;18.70;92.70;;;;;;4999369;28;20121;-78
2021/07/18 00:56:32;;;;;;;7.00;4.03;;;18.60;92.60;;;;;;4998633;28;20157;-77
2021/07/18 00:58:58;;;;;;;7.50;3.05;;;18.60;92.90;;;;;;5000444;28;20022;-77
2021/07/18 01:01:25;;;;;;;5.00;2.80;;;18.50;92.90;;;;;;5012791;28;20019;-77
2021/07/18 01:03:51;;;;;;;4.45;2.72;;;18.50;92.80;;;;;;5019877;23;20018;-73
2021/07/18 01:06:16;;;;;;;7.40;3.33;;;18.60;93.00;;;;;;4989039;28;20042;-73
2021/07/18 01:08:43;;;;;;;7.65;2.92;;;18.60;92.90;;;;;;4988030;28;20049;-73
2021/07/18 01:11:08;;;;;;;8.90;3.35;;;18.60;92.80;;;;;;4987917;28;20540;-73
2021/07/18 01:13:34;;;;;;;5.80;2.78;;;18.50;92.80;;;;;;4989388;28;20034;-73
2021/07/18 01:16:01;;;;;;;8.43;3.67;;;18.50;92.90;;;;;;4988936;28;20046;-73
2021/07/18 01:18:27;;;;;;;4.53;3.15;;;18.60;92.80;;;;;;4976381;28;20026;-73
2021/07/18 01:20:53;;;;;;;5.45;3.85;;;18.60;92.90;;;;;;4987724;28;20389;-73
2021/07/18 01:23:19;;;;;;;6.93;3.58;;;18.70;92.70;;;;;;4985594;28;20117;-73
2021/07/18 01:25:45;;;;;;;5.32;3.33;;;18.80;92.60;;;;;;4980610;28;20105;-73
2021/07/18 01:28:13;;;;;;;9.25;3.78;;;18.80;92.50;;;;;;4999139;28;20031;-74
2021/07/18 01:30:39;;;;;;;7.00;3.38;;;18.80;92.40;;;;;;4984901;28;20049;-73
2021/07/18 01:33:04;;;;;;;7.40;3.20;;;18.80;92.50;;;;;;5001027;28;20401;-73
2021/07/18 01:35:30;;;;;;;6.85;3.33;;;18.90;92.50;;;;;;4984336;28;20022;-73
2021/07/18 01:37:57;;;;;;;9.57;4.30;;;18.80;92.40;;;;;;4986393;28;20113;-73
2021/07/18 01:40:22;;;;;;;9.57;3.80;;;18.80;92.50;;;;;;4984913;28;20384;-73
2021/07/18 01:42:48;;;;;;;5.55;3.42;;;18.80;92.40;;;;;;4989233;28;20031;-73
2021/07/18 01:45:13;;;;;;;9.57;3.13;;;18.60;92.40;;;;;;4987920;28;20164;-73
2021/07/18 01:47:41;;;;;;;6.78;3.00;;;18.60;92.70;;;;;;4986212;28;20030;-74
2021/07/18 01:50:07;;;;;;;8.07;4.13;;;18.50;92.70;;;;;;4988343;28;20073;-74
2021/07/18 01:52:34;;;;;;;4.53;3.80;;;18.50;92.80;;;;;;4976649;28;20113;-73
2021/07/18 01:54:59;;;;;;;5.28;4.00;;;18.40;92.90;;;;;;4980490;28;20036;-73
2021/07/18 01:57:25;;;;;;;3.58;3.17;;;18.50;93.00;;;;;;4989828;28;20026;-73
2021/07/18 01:59:50;;;;;;;6.22;2.97;;;18.50;93.10;;;;;;4991585;28;20030;-73
2021/07/18 02:02:16;;;;;;;12.75;4.53;;;18.60;93.20;;;;;;4992772;28;20505;-73
2021/07/18 02:04:42;;;;;;;5.95;3.03;;;18.50;93.00;;;;;;4986174;28;20030;-74
2021/07/18 02:07:07;;;;;;;14.25;4.05;;;18.50;93.30;;;;;;4991106;28;20113;-73
2021/07/18 02:09:36;;;;;;;6.90;4.05;;;18.50;93.30;;;;;;4989086;28;20526;-73
2021/07/18 02:12:03;;;;;;;7.70;4.07;;;18.40;93.50;;;;;;4985857;28;20043;-74
2021/07/18 02:14:31;;;;;;;7.50;4.28;;;18.30;93.90;;;;;;4992418;28;20038;-74
2021/07/18 02:16:56;;;;;;;11.18;3.63;;;18.20;94.30;;;;;;4990204;28;20030;-73
2021/07/18 02:19:26;;;;;;;10.88;4.35;;;18.00;94.30;;;;;;5007025;28;20022;-73
2021/07/18 02:21:52;;;;;;;9.98;4.80;;;18.00;94.90;;;;;;4990410;28;20025;-73
2021/07/18 02:24:17;;;;;;;10.43;4.70;;;17.90;95.30;;;;;;5007513;28;20027;-74
2021/07/18 02:26:43;;;;;;;7.68;4.25;;;17.80;95.30;;;;;;4988620;28;20089;-73
2021/07/18 02:29:08;;;;;;;8.63;3.70;;;17.70;95.70;;;;;;4988353;28;20038;-73
2021/07/18 02:31:34;;;;;;;7.70;4.45;;;17.60;95.90;;;;;;5005293;28;20034;-73
2021/07/18 02:33:59;;;;;;;11.75;5.47;;;17.60;96.00;;;;;;4990868;28;20396;-74
2021/07/18 02:36:25;;;;;;;8.68;5.28;;;17.50;96.30;;;;;;4990560;28;20026;-73
2021/07/18 02:38:52;;;;;;;10.20;4.40;;;17.40;96.30;;;;;;4990820;28;20049;-73
2021/07/18 02:41:18;;;;;;;14.05;5.35;;;17.40;96.80;;;;;;4990100;28;20019;-73
2021/07/18 02:43:43;;;;;;;7.50;4.20;;;17.50;96.40;;;;;;4991476;28;20048;-73
2021/07/18 02:46:08;;;;;;;9.35;4.00;;;17.50;96.50;;;;;;4987729;28;20038;-73
2021/07/18 02:48:38;;;;;;;11.98;4.57;;;17.50;96.60;;;;;;4988848;28;20058;-73
2021/07/18 02:51:04;;;;;;;12.30;4.90;;;17.50;96.60;;;;;;4990145;28;20042;-73
2021/07/18 02:53:30;;;;;;;6.38;4.55;;;17.40;96.70;;;;;;4989137;28;20068;-73
2021/07/18 02:55:56;;;;;;;10.20;4.10;;;17.40;96.70;;;;;;4992005;28;20023;-73
2021/07/18 02:58:22;;;;;;;8.75;5.20;;;17.50;96.50;;;;;;4988181;28;20031;-73
2021/07/18 03:00:48;;;;;;;6.25;4.15;;;17.50;96.50;;;;;;4987879;28;20106;-73
2021/07/18 03:03:13;;;;;;;6.15;4.20;;;17.60;96.50;;;;;;4980947;28;20030;-73
2021/07/18 03:05:39;;;;;;;6.30;3.78;;;17.70;96.30;;;;;;4988173;28;20039;-73
2021/07/18 03:08:05;;;;;;;6.97;4.05;;;17.80;96.10;;;;;;4989168;28;20125;-73
2021/07/18 03:10:30;;;;;;;10.05;5.00;;;17.90;95.90;;;;;;4990142;28;20384;-74
2021/07/18 03:12:56;;;;;;;7.85;5.72;;;18.00;95.80;;;;;;5006782;28;20088;-73
2021/07/18 03:15:21;;;;;;;12.20;4.68;;;18.20;95.60;;;;;;5004659;28;20022;-73
2021/07/18 03:17:47;;;;;;;10.80;4.97;;;18.20;95.50;;;;;;4991831;28;20234;-73
2021/07/18 03:20:14;;;;;;;6.28;3.90;;;18.30;95.30;;;;;;4988208;28;20034;-74
2021/07/18 03:22:42;;;;;;;12.02;4.60;;;18.40;95.20;;;;;;4981750;28;20022;-74
2021/07/18 03:25:08;;;;;;;8.75;5.00;;;18.40;95.00;;;;;;4988895;28;20042;-74
2021/07/18 03:27:34;;;;;;;8.25;3.95;;;18.40;94.90;;;;;;4988010;28;20022;-74
2021/07/18 03:30:01;;;;;;;8.32;4.53;;;18.50;94.90;;;;;;4991376;28;20034;-74
2021/07/18 03:32:26;;;;;;;5.90;3.63;;;18.40;95.00;;;;;;4989279;28;20026;-74
2021/07/18 03:34:53;;;;;;;7.32;4.35;;;18.20;95.20;;;;;;4987096;28;20022;-74
2021/07/18 03:37:19;;;;;;;9.50;4.72;;;18.10;95.20;;;;;;5004284;28;20485;-74
2021/07/18 03:39:45;;;;;;;14.05;5.38;;;18.10;95.30;;;;;;4990280;28;20037;-74
2021/07/18 03:42:10;;;;;;;8.43;3.90;;;18.10;95.30;;;;;;5004583;28;20034;-74
2021/07/18 03:44:37;;;;;;;11.48;4.45;;;18.10;95.30;;;;;;4991106;28;20045;-74
2021/07/18 03:47:02;;;;;;;7.15;4.07;;;18.20;95.50;;;;;;4990677;28;20031;-73
2021/07/18 03:49:28;;;;;;;4.22;3.30;;;18.20;95.50;;;;;;4988627;28;20481;-73
2021/07/18 03:51:54;;;;;;;5.80;4.40;;;18.20;95.30;;;;;;4987604;28;20493;-74
2021/07/18 03:54:20;;;;;;;11.77;4.72;;;18.20;95.20;;;;;;4987674;28;20416;-74
2021/07/18 03:56:46;;;;;;;8.50;4.43;;;18.30;95.20;;;;;;4988945;28;20429;-74
2021/07/18 03:59:11;;;;;;;9.00;4.50;;;18.20;95.20;;;;;;4988956;28;20026;-74
2021/07/18 04:01:37;;;;;;;9.38;4.20;;;18.20;95.30;;;;;;4991068;28;20505;-74
2021/07/18 04:04:02;;;;;;;11.35;4.07;;;18.20;95.40;;;;;;4988508;28;20038;-74
2021/07/18 04:06:28;;;;;;;7.10;3.28;;;18.10;95.70;;;;;;4990944;28;20029;-74
2021/07/18 04:08:53;;;;;;;8.35;3.83;;;18.00;95.70;;;;;;4987047;28;20041;-74
2021/07/18 04:11:19;;;;;;;8.93;3.58;;;17.90;95.70;;;;;;4987803;28;20038;-74
2021/07/18 04:13:44;;;;;;;6.93;4.22;;;17.90;95.80;;;;;;4988659;28;20022;-74
2021/07/18 04:16:10;;;;;;;12.48;4.45;;;17.90;95.70;;;;;;4987793;28;20027;-74
2021/07/18 04:18:35;;;;;;;11.05;4.57;;;17.90;95.80;;;;;;4985097;28;20042;-74
2021/07/18 04:21:02;;;;;;;9.48;4.60;;;17.90;95.90;;;;;;4990038;28;20478;-74
2021/07/18 04:23:27;;;;;;;8.32;4.32;;;17.80;96.00;;;;;;4988322;28;20030;-74
2021/07/18 04:25:53;;;;;;;5.05;3.10;;;17.80;96.10;;;;;;5005479;28;20031;-74
2021/07/18 04:28:18;;;;;;;9.43;3.80;;;17.80;96.00;;;;;;4988109;28;20389;-74
2021/07/18 04:30:44;;;;;;;6.05;3.45;;;17.90;95.90;;;;;;4989597;28;20026;-74
2021/07/18 04:33:09;;;;;;;11.15;3.90;;;18.10;95.80;;;;;;4985927;28;20072;-74
2021/07/18 04:35:35;;;;;;;6.18;3.97;;;18.20;95.70;;;;;;4986441;28;20623;-73
2021/07/18 04:38:03;;;;;;;7.75;4.63;;;18.20;95.60;;;;;;4989694;28;20034;-74
2021/07/18 04:40:30;;;;;;;7.85;4.03;;;18.30;95.50;;;;;;4989128;28;20029;-74
2021/07/18 04:42:55;;;;;;;7.72;3.65;;;18.30;95.70;;;;;;4990265;28;20026;-73
2021/07/18 04:45:21;;;;;;;14.88;3.63;;;18.10;95.50;;;;;;4978301;28;20611;-73
2021/07/18 04:47:49;;;;;;;6.47;3.65;;;18.10;95.70;;;;;;4990228;28;20030;-73
2021/07/18 04:50:16;;;;;;;4.45;3.42;;;18.00;96.10;;;;;;4979247;28;20030;-73
2021/07/18 04:52:42;;;;;;;2.92;2.63;;;18.00;95.80;;;;;;4987088;28;20042;-74
2021/07/18 04:55:09;;;;;;;6.30;3.72;;;18.10;95.70;;;;;;4987350;28;20568;-74
2021/07/18 04:57:35;;;;;;;8.65;4.25;;;18.10;95.80;;;;;;4988584;28;20030;-74
2021/07/18 05:00:09;;;;;;;7.13;3.80;;;17.90;95.90;;;;;;4988892;28;20030;-74
2021/07/18 05:02:35;;;;;;;7.03;3.25;;;17.80;96.10;;;;;;4988841;28;20148;-73
2021/07/18 05:05:01;;;;;;;15.43;4.85;;;17.80;96.30;;;;;;4979921;28;20046;-73
2021/07/18 05:07:26;;;;;;;7.85;3.78;;;17.70;96.40;;;;;;4988185;28;20057;-74
2021/07/18 05:09:52;;;;;;;9.77;3.60;;;17.70;96.40;;;;;;4985155;28;20022;-73
2021/07/18 05:12:17;;;;;;;6.95;3.47;;;17.60;96.50;;;;;;5004204;28;20733;-73
2021/07/18 05:14:45;;;;;;;9.77;3.35;;;17.50;96.50;;;;;;4984607;28;20089;-73
2021/07/18 05:17:14;;;;;;;6.05;3.40;;;17.60;96.50;;;;;;4989909;28;20015;-74
2021/07/18 05:19:40;;;;;;;10.65;4.10;;;17.70;96.50;;;;;;4987943;28;20725;-73
2021/07/18 05:22:06;;;;;;;5.70;4.10;;;17.70;96.50;;;;;;4981099;28;20030;-73
2021/07/18 05:24:32;;;;;;;6.28;3.72;;;17.70;96.50;;;;;;4976395;28;20470;-73
2021/07/18 05:26:58;;;;;;;7.57;3.45;;;17.80;96.40;;;;;;4989645;28;20105;-73
2021/07/18 05:29:23;;;;;;;8.32;3.63;;;17.80;96.30;;;;;;4987434;28;20936;-73
2021/07/18 05:31:49;;;;;;;8.98;3.88;;;17.80;96.30;;;;;;5004666;28;20014;-74
2021/07/18 05:34:14;;;;;;;4.85;3.28;;;17.80;96.30;;;;;;4984846;28;20073;-74
2021/07/18 05:36:40;;;;;;;5.40;3.17;;;17.80;96.30;;;;;;4989726;28;20617;-74
2021/07/18 05:39:06;;;;;;;6.10;3.63;;;17.80;96.30;;;;;;4984887;28;20038;-73
2021/07/18 05:41:31;;;;;;;6.22;3.72;;;17.80;96.40;;;;;;4985628;28;20030;-73
2021/07/18 05:43:57;;;;;;;6.03;3.15;;;17.80;96.40;;;;;;4980256;28;20022;-74
2021/07/18 05:46:22;;;;;;;4.55;3.35;;;17.80;96.20;;;;;;4986731;28;20124;-73
2021/07/18 05:48:48;;;;;;;5.07;2.72;;;17.90;96.30;;;;;;4989235;28;20389;-73
2021/07/18 05:51:14;;;;;;;6.03;3.22;;;18.10;96.10;;;;;;4980146;28;20041;-73
2021/07/18 05:53:39;;;;;;;5.50;2.38;;;18.20;95.80;;;;;;4989738;28;20033;-74
2021/07/18 05:56:05;;;;;;;12.40;4.30;;;18.20;95.70;;;;;;4986627;28;20040;-73
2021/07/18 05:58:31;;;;;;;7.60;3.03;;;18.20;95.60;;;;;;4982380;28;20026;-73
2021/07/18 06:00:56;;;;;;;8.10;2.75;;;18.10;95.40;;;;;;4987604;28;20030;-74
2021/07/18 06:03:22;;;;;;;5.38;2.92;;;18.10;95.70;;;;;;4988463;28;20045;-74
2021/07/18 06:05:47;;;;;;;5.32;2.60;;;18.00;95.60;;;;;;4978517;28;20034;-74
2021/07/18 06:08:13;;;;;;;5.55;2.67;;;18.00;95.60;;;;;;4985731;28;20092;-74
2021/07/18 06:10:39;;;;;;;4.53;2.75;;;18.00;95.60;;;;;;4985120;28;20038;-74
2021/07/18 06:13:04;;;;;;;6.68;2.22;;;18.00;95.60;;;;;;4985543;28;20155;-74
2021/07/18 06:15:30;;;;;;;6.10;2.60;;;18.10;95.60;;;;;;4987270;28;20038;-74
2021/07/18 06:17:55;;;;;;;3.58;2.33;;;18.10;95.70;;;;;;5003419;28;20022;-74
2021/07/18 06:20:21;;;;;;;8.15;2.75;;;18.00;95.70;;;;;;4985004;28;20504;-74
2021/07/18 06:22:47;;;;;;;5.95;2.75;;;18.10;95.70;;;;;;5003467;28;20113;-75
2021/07/18 06:25:13;;;;;;;7.80;2.60;;;18.20;95.70;;;;;;4984841;28;20027;-75
2021/07/18 06:27:41;;;;;;;10.13;2.67;;;18.20;95.70;;;;;;4987850;28;20035;-75
2021/07/18 06:30:08;;;;;;;12.55;2.78;;;18.30;95.60;;;;;;4983840;28;20019;-74
2021/07/18 06:32:34;;;;;;;5.72;2.67;;;18.40;95.50;;;;;;4987888;28;20493;-74
2021/07/18 06:34:59;;;;;;;4.22;2.47;;;18.40;95.30;;;;;;4999894;28;20165;-74
2021/07/18 06:37:25;;;;;;;7.63;2.80;;;18.40;95.20;;;;;;4988972;28;20031;-74
2021/07/18 06:39:51;;;;;;;5.70;3.10;;;18.50;94.80;;;;;;4986551;28;20058;-74
2021/07/18 06:42:18;;;;;;;5.88;2.35;;;18.50;94.90;;;;;;4986160;28;20076;-74
2021/07/18 06:44:43;;;;;;;2.55;2.08;;;18.50;94.80;;;;;;4990984;28;20037;-74
2021/07/18 06:47:08;;;;;;;6.35;2.42;;;18.60;94.80;;;;;;5006246;28;20031;-75
2021/07/18 06:49:35;;;;;;;5.43;2.47;;;18.60;94.70;;;;;;4989680;28;20026;-74
2021/07/18 06:52:00;;;;;;;5.80;2.30;;;18.70;94.50;;;;;;4989986;28;20072;-75
2021/07/18 06:54:26;;;;;;;8.05;2.35;;;18.70;94.50;;;;;;4990786;28;20034;-74
2021/07/18 06:56:51;;;;;;;6.45;2.45;;;18.80;94.40;;;;;;4990445;28;20026;-74
2021/07/18 06:59:17;;;;;;;6.93;2.40;;;18.80;94.20;;;;;;5005388;28;20100;-74
2021/07/18 07:01:42;;;;;;;4.57;2.47;;;18.90;94.10;;;;;;5005839;28;20031;-75
2021/07/18 07:04:08;;;;;;;2.78;1.95;;;18.90;94.00;;;;;;4985738;28;20042;-73
2021/07/18 07:06:34;;;;;;;8.77;2.65;;;18.90;94.00;;;;;;4988392;28;20027;-72
2021/07/18 07:08:59;;;;;;;5.97;2.72;;;19.00;94.00;;;;;;4989465;28;20101;-72
2021/07/18 07:11:25;;;;;;;6.45;3.30;;;19.00;93.90;;;;;;5002486;28;20027;-72
2021/07/18 07:13:51;;;;;;;3.53;1.65;;;19.00;93.90;;;;;;4989097;28;20049;-73
2021/07/18 07:16:17;;;;;;;4.68;2.67;;;19.10;93.90;;;;;;4988931;28;20030;-73
2021/07/18 07:18:43;;;;;;;6.72;2.38;;;19.20;93.60;;;;;;4987180;28;20026;-73
2021/07/18 07:21:09;;;;;;;3.90;2.38;;;19.30;93.30;;;;;;4980865;28;20109;-73
2021/07/18 07:23:37;;;;;;;7.75;2.40;;;19.30;93.30;;;;;;4976882;28;20123;-73
2021/07/18 07:26:04;;;;;;;4.05;2.10;;;19.30;93.30;;;;;;4987331;28;20111;-73
2021/07/18 07:28:30;;;;;;;4.47;2.92;;;19.40;93.40;;;;;;4980874;28;20074;-73
2021/07/18 07:30:56;;;;;;;3.83;1.75;;;19.60;93.20;;;;;;4979558;28;20437;-73
2021/07/18 07:33:22;;;;;;;7.72;2.70;;;19.80;93.00;;;;;;4991393;28;20034;-73
2021/07/18 07:35:47;;;;;;;5.63;2.75;;;20.00;92.80;;;;;;5005302;28;20113;-73
2021/07/18 07:38:13;;;;;;;5.47;2.17;;;20.20;92.60;;;;;;4989227;28;20034;-73
2021/07/18 07:40:38;;;;;;;6.10;4.57;;;20.40;92.50;;;;;;4986979;28;20133;-73
2021/07/18 07:43:06;;;;;;;7.30;3.65;;;20.70;92.60;;;;;;5005487;28;20037;-73
2021/07/18 07:45:32;;;;;;;4.82;2.40;;;21.00;92.30;;;;;;4988366;28;20026;-73
2021/07/18 07:47:57;;;;;;;5.22;2.00;;;21.30;92.00;;;;;;4981071;28;20378;-73
2021/07/18 07:50:23;;;;;;;5.80;2.30;;;21.50;91.30;;;;;;4988890;28;20054;-72
2021/07/18 07:52:48;;;;;;;4.63;2.35;;;21.50;91.00;;;;;;4981093;28;20541;-73
2021/07/18 07:55:14;;;;;;;8.00;4.85;;;21.60;90.90;;;;;;4984978;28;20037;-74
2021/07/18 07:57:40;;;;;;;7.07;3.78;;;21.60;91.10;;;;;;4978897;28;20022;-78
2021/07/18 08:00:14;;;;;;;5.00;2.50;;;21.80;90.50;;;;;;4990198;28;20390;-73
2021/07/18 08:02:51;;;;;;;5.45;2.75;;;21.90;89.80;;;;;;4987075;28;20054;-74
2021/07/18 08:05:20;;;;;;;4.57;2.70;;;22.00;89.90;;;;;;4985373;28;20554;-74
2021/07/18 08:07:46;;;;;;;8.10;3.22;;;22.10;89.70;;;;;;5005809;28;20482;-73
2021/07/18 08:10:15;;;;;;;3.53;2.28;;;22.10;87.80;;;;;;4991110;28;20065;-71
2021/07/18 08:12:45;;;;;;;5.45;2.20;;;22.00;87.50;;;;;;4977998;28;20034;-72
2021/07/18 08:15:15;;;;;;;4.25;2.92;;;22.10;88.70;;;;;;4984926;28;20046;-73
2021/07/18 08:17:42;;;;;;;4.57;2.42;;;22.60;88.40;;;;;;5001759;28;20129;-73
2021/07/18 08:20:18;;;;;;;3.05;2.53;;;23.10;85.10;;;;;;4991945;28;20053;-73
2021/07/18 08:22:45;;;;;;;6.82;2.55;;;23.40;84.20;;;;;;4990236;28;20049;-72
2021/07/18 08:25:13;;;;;;;5.07;2.45;;;23.60;83.90;;;;;;4991327;28;20038;-72
2021/07/18 08:27:38;;;;;;;4.70;2.80;;;23.60;83.60;;;;;;4983651;28;20126;-72
2021/07/18 08:30:05;;;;;;;7.50;2.70;;;23.60;83.60;;;;;;4983363;28;20117;-72
2021/07/18 08:32:32;;;;;;;4.35;3.33;;;23.50;83.70;;;;;;4983884;28;20050;-77
2021/07/18 08:34:59;;;;;;;5.95;2.75;;;23.50;84.10;;;;;;4985685;28;20037;-73
2021/07/18 08:37:33;;;;;;;6.45;2.42;;;23.60;81.90;;;;;;4973591;28;20054;-71
2021/07/18 08:40:00;;;;;;;6.95;2.72;;;23.50;82.90;;;;;;4978630;28;20070;-72
2021/07/18 08:42:26;;;;;;;5.82;3.33;;;23.50;82.00;;;;;;5005645;28;20039;-71
2021/07/18 08:44:51;;;;;;;4.93;2.88;;;23.40;82.40;;;;;;4979658;28;20432;-71
2021/07/18 08:47:18;;;;;;;4.85;3.03;;;23.30;83.10;;;;;;4980417;28;20038;-70
2021/07/18 08:49:43;;;;;;;4.82;2.97;;;23.40;82.80;;;;;;4977638;28;20034;-71
2021/07/18 08:52:10;;;;;;;3.63;2.78;;;23.50;83.20;;;;;;4978131;28;20117;-72
2021/07/18 08:54:37;;;;;;;2.78;1.73;;;23.70;82.50;;;;;;4989851;28;20046;-71
2021/07/18 08:57:04;;;;;;;8.93;2.35;;;23.50;81.70;;;;;;4992746;28;20037;-72
2021/07/18 08:59:31;;;;;;;6.97;2.15;;;23.50;81.20;;;;;;4980282;28;20030;-72
2021/07/18 09:01:58;;;;;;;6.05;3.08;;;23.50;82.70;;;;;;4987037;28;20027;-71
2021/07/18 09:04:23;;;;;;;5.88;2.85;;;23.50;82.60;;;;;;4981908;28;20116;-72
2021/07/18 09:06:53;;;;;;;4.05;2.17;;;23.50;80.20;;;;;;4982763;28;20473;-72
2021/07/18 09:09:22;;;;;;;3.90;2.22;;;23.20;81.10;;;;;;4989610;28;20027;-72
2021/07/18 09:11:57;;;;;;;8.07;2.70;;;23.00;81.70;;;;;;4977709;28;20481;-72
2021/07/18 09:14:23;;;;;;;6.50;2.60;;;23.10;81.50;;;;;;4985933;28;20397;-72
2021/07/18 09:16:51;;;;;;;7.15;3.97;;;23.10;81.70;;;;;;4986587;28;20022;-72
2021/07/18 09:19:31;;;;;;;2.72;1.73;;;23.00;81.80;;;;;;4982688;28;20030;-72
2021/07/18 09:22:29;;;;;;;3.42;1.92;;;22.90;81.00;;;;;;4980814;28;20486;-71
2021/07/18 09:25:00;;;;;;;10.15;3.80;;;22.70;81.50;;;;;;4977326;28;20408;-71
2021/07/18 09:27:34;;;;;;;2.65;2.45;;;22.70;82.60;;;;;;5006712;28;20490;-70
2021/07/18 09:30:12;;;;;;;4.47;2.55;;;22.80;82.20;;;;;;4981318;28;20038;-71
2021/07/18 09:32:40;;;;;;;2.83;2.17;;;22.80;82.20;;;;;;4988394;28;20030;-72
2021/07/18 09:35:11;;;;;;;6.95;3.28;;;23.00;82.70;;;;;;4976526;28;20035;-72
2021/07/18 09:37:40;;;;;;;5.40;1.55;;;23.00;82.30;;;;;;4987559;28;20036;-71
2021/07/18 09:40:08;;;;;;;8.55;3.10;;;23.10;82.70;;;;;;4983392;28;20111;-72
2021/07/18 09:42:47;;;;;;;3.53;2.47;;;23.10;82.00;;;;;;4982747;28;20034;-70
2021/07/18 09:45:16;;;;;;;4.68;2.97;;;23.40;82.40;;;;;;4979501;28;20481;-71
2021/07/18 09:48:01;;;;;;;2.65;2.45;;;23.50;81.10;;;;;;4985645;28;20454;-72
2021/07/18 09:50:31;;;;;;;4.72;2.33;;;23.50;81.10;;;;;;4979270;28;20034;-71
2021/07/18 09:53:15;;;;;;;7.13;2.80;;;23.50;81.30;;;;;;4969831;28;20034;-69
2021/07/18 09:56:09;;;;;;;8.95;3.67;;;23.70;81.10;;;;;;4980018;28;20062;-69
2021/07/18 09:58:39;;;;;;;8.20;3.05;;;23.90;80.90;;;;;;4973132;28;20023;-71
2021/07/18 10:01:07;;;;;;;4.18;3.03;;;24.10;80.30;;;;;;4984681;28;20022;-72
2021/07/18 10:03:33;;;;;;;4.70;2.58;;;24.00;80.10;;;;;;4978039;28;20433;-71
2021/07/18 10:06:10;;;;;;;6.10;2.65;;;24.10;79.10;;;;;;4984799;28;20080;-71
2021/07/18 10:08:40;;;;;;;3.90;2.15;;;24.00;78.70;;;;;;4986889;28;20034;-71
2021/07/18 10:11:08;;;;;;;7.82;2.92;;;23.90;78.20;;;;;;4988777;28;20121;-71
2021/07/18 10:13:36;;;;;;;9.65;4.13;;;23.80;79.40;;;;;;4977480;28;20030;-71
2021/07/18 10:16:02;;;;;;;8.10;3.00;;;23.90;79.10;;;;;;4987281;28;20125;-71
2021/07/18 10:18:29;;;;;;;7.82;4.50;;;23.80;79.30;;;;;;4982928;28;20446;-72
2021/07/18 10:20:55;;;;;;;5.07;2.75;;;23.90;79.80;;;;;;4988624;28;20515;-71
2021/07/18 10:23:22;;;;;;;7.55;2.97;;;24.00;79.50;;;;;;4987999;28;20022;-71
2021/07/18 10:25:49;;;;;;;4.90;3.42;;;23.90;78.90;;;;;;4980840;28;20096;-72
2021/07/18 10:28:17;;;;;;;5.25;3.00;;;23.80;78.90;;;;;;4985179;28;20114;-73
2021/07/18 10:30:46;;;;;;;5.38;3.42;;;23.60;79.50;;;;;;4984311;28;20437;-73
2021/07/18 10:33:17;;;;;;;15.77;9.27;;;23.60;80.20;;;;;;4978587;28;20050;-73
2021/07/18 10:35:44;;;;;;;6.72;2.90;;;23.70;80.30;;;;;;4982938;28;20064;-73
2021/07/18 10:38:21;;;;;;;3.88;2.80;;;23.90;78.70;;;;;;4983544;28;20030;-73
2021/07/18 10:40:55;;;;;;;4.45;3.03;;;23.80;78.10;;;;;;4983679;28;20027;-73
2021/07/18 10:43:41;;;;;;;3.05;2.00;;;23.80;78.10;;;;;;4979470;28;20093;-73
2021/07/18 10:46:12;;;;;;;3.80;2.45;;;23.60;78.80;;;;;;4976853;28;20035;-70
2021/07/18 10:48:45;;;;;;;6.15;3.33;;;23.80;79.20;;;;;;4987576;28;20108;-73
2021/07/18 10:51:13;;;;;;;4.30;2.45;;;23.90;78.80;;;;;;4986442;28;20090;-72
2021/07/18 10:53:39;;;;;;;6.57;2.80;;;23.80;78.40;;;;;;4989757;28;20030;-71
2021/07/18 10:56:05;;;;;;;4.32;2.30;;;23.90;77.80;;;;;;4982531;28;20133;-72
2021/07/18 10:58:45;;;;;;;2.35;2.10;;;23.90;77.50;;;;;;4982932;28;20038;-72
2021/07/18 11:01:10;;;;;;;4.35;2.55;;;23.70;78.00;;;;;;4980222;28;20089;-72
2021/07/18 11:03:41;;;;;;;3.00;2.22;;;23.70;78.10;;;;;;4990516;28;20022;-72
2021/07/18 11:06:37;;;;;;;4.20;2.67;;;23.60;78.50;;;;;;4987812;28;20057;-73
2021/07/18 11:09:07;;;;;;;6.10;3.03;;;23.80;78.20;;;;;;4978318;28;20512;-73
2021/07/18 11:11:41;;;;;;;3.72;1.90;;;23.90;78.10;;;;;;4991633;28;20042;-73
2021/07/18 11:14:34;;;;;;;4.50;2.35;;;24.10;77.80;;;;;;4980956;28;20048;-73
2021/07/18 11:17:06;;;;;;;3.53;2.00;;;24.10;76.30;;;;;;5004088;28;20042;-72
2021/07/18 11:19:34;;;;;;;5.63;3.15;;;24.00;76.20;;;;;;4980310;28;20031;-72
2021/07/18 11:22:03;;;;;;;7.20;3.17;;;24.10;77.20;;;;;;4988838;28;20304;-73
2021/07/18 11:25:02;;;;;;;3.25;2.42;;;24.10;75.90;;;;;;4986911;28;20038;-73
2021/07/18 11:27:30;;;;;;;4.60;3.05;;;24.00;76.00;;;;;;4978439;28;20051;-73
2021/07/18 11:29:57;;;;;;;4.03;2.03;;;23.90;76.50;;;;;;4984582;28;20034;-73
2021/07/18 11:32:26;;;;;;;3.67;2.78;;;23.80;76.80;;;;;;4991120;28;20105;-72
2021/07/18 11:34:55;;;;;;;3.80;2.33;;;23.80;77.30;;;;;;4983715;28;20398;-70
2021/07/18 11:37:25;;;;;;;4.75;2.85;;;23.90;77.60;;;;;;4990491;28;20087;-73
2021/07/18 11:39:50;;;;;;;5.05;2.90;;;24.20;76.80;;;;;;4984984;28;20045;-74
2021/07/18 11:42:17;;;;;;;3.35;2.20;;;24.30;76.90;;;;;;4991238;28;20058;-74
2021/07/18 11:44:46;;;;;;;2.28;2.08;;;24.40;75.60;;;;;;4989855;28;20523;-73
2021/07/18 11:47:15;;;;;;;4.38;2.72;;;24.50;76.30;;;;;;4984039;28;20039;-74
2021/07/18 11:49:46;;;;;;;4.90;2.80;;;24.60;75.30;;;;;;4980219;28;20516;-72
2021/07/18 11:52:13;;;;;;;3.17;2.80;;;24.50;75.70;;;;;;4979591;28;20502;-72
2021/07/18 11:54:39;;;;;;;5.85;2.30;;;24.60;75.90;;;;;;4980109;28;20037;-73
2021/07/18 11:57:10;;;;;;;2.92;2.10;;;24.70;73.70;;;;;;4990921;28;20022;-73
2021/07/18 11:59:41;;;;;;;3.10;2.67;;;24.70;73.30;;;;;;4989195;28;20482;-73
2021/07/18 12:02:07;;;;;;;6.13;2.63;;;24.60;74.70;;;;;;4987764;28;20035;-73
2021/07/18 12:04:34;;;;;;;2.47;2.28;;;24.80;75.10;;;;;;4988523;28;20031;-73
2021/07/18 12:07:03;;;;;;;3.22;2.40;;;25.10;74.10;;;;;;4989572;28;20077;-73
2021/07/18 12:09:42;;;;;;;5.60;2.30;;;25.20;74.10;;;;;;4986460;28;20054;-73
2021/07/18 12:12:10;;;;;;;5.22;2.15;;;25.40;73.60;;;;;;4980546;28;20518;-73
2021/07/18 12:14:37;;;;;;;3.15;1.80;;;25.60;72.80;;;;;;4990067;28;20125;-73
2021/07/18 12:17:05;;;;;;;5.20;2.22;;;25.70;72.10;;;;;;4981499;28;20061;-73
2021/07/18 12:19:33;;;;;;;4.80;1.85;;;25.70;72.70;;;;;;4989972;28;20109;-73
2021/07/18 12:22:01;;;;;;;4.85;2.60;;;25.80;70.90;;;;;;4990381;28;20026;-73
2021/07/18 12:24:31;;;;;;;5.82;2.63;;;25.70;70.20;;;;;;4989761;28;20064;-73
2021/07/18 12:27:02;;;;;;;2.33;1.88;;;25.50;70.50;;;;;;4980644;28;20032;-73
2021/07/18 12:29:33;;;;;;;3.08;2.45;;;25.30;71.10;;;;;;4985480;28;20038;-73
2021/07/18 12:31:59;;;;;;;2.38;1.90;;;25.30;71.60;;;;;;4980841;28;20389;-73
2021/07/18 12:34:30;;;;;;;6.75;2.10;;;25.10;71.40;;;;;;4990461;28;20037;-73
2021/07/18 12:37:02;;;;;;;6.00;2.53;;;25.10;71.90;;;;;;4990310;28;20033;-73
2021/07/18 12:39:39;;;;;;;5.00;1.98;;;25.20;72.20;;;;;;4989295;28;20022;-73
2021/07/18 12:42:08;;;;;;;3.45;2.15;;;25.50;72.10;;;;;;4991497;28;20157;-73
2021/07/18 12:44:36;;;;;;;4.32;2.25;;;25.70;71.30;;;;;;4991734;28;20509;-73
2021/07/18 12:47:35;;;;;;;4.65;2.45;;;25.60;70.90;;;;;;4981473;28;20497;-73